Wetterdaten: Woche 01.11.10 - 07.11.10 (KW44)
Datum Zeit Temperatur Luftfeuchte Luftdruck Niederschlag Wind Richtung Sonnenschein Solar Taupunkt Windchill Windben
01.11.2010 00:00 9.2 C 94 % 1001.0 hPa 0.0 l/m 1.7 km/h (1 Bft) N 0.00 h 0 W/m 8.2 C 9.1 C 3.2 km/h (1 Bft)
01.11.2010 01:00 8.8 C 95 % 1001.5 hPa 0.0 l/m 2.1 km/h (1 Bft) N-NW 0.00 h 0 W/m 8.1 C 8.8 C 4.5 km/h (1 Bft)
01.11.2010 02:00 8.3 C 95 % 1001.8 hPa 0.0 l/m 0.4 km/h (0 Bft) O 0.00 h 0 W/m 7.6 C 8.3 C 1.3 km/h (1 Bft)
01.11.2010 03:00 7.9 C 95 % 1002.4 hPa 0.0 l/m 1.6 km/h (1 Bft) O-SO 0.00 h 0 W/m 7.2 C 7.8 C 2.8 km/h (1 Bft)
01.11.2010 04:00 7.8 C 96 % 1003.5 hPa 0.0 l/m 0.2 km/h (0 Bft) O-SO 0.00 h 0 W/m 7.3 C 7.8 C 0.6 km/h (0 Bft)
01.11.2010 05:00 7.8 C 96 % 1004.5 hPa 0.0 l/m 0.1 km/h (0 Bft) O 0.00 h 0 W/m 7.3 C 7.8 C 0.4 km/h (0 Bft)
01.11.2010 06:00 7.8 C 97 % 1005.1 hPa 0.0 l/m 0.9 km/h (0 Bft) O 0.00 h 0 W/m 7.4 C 7.8 C 2.3 km/h (1 Bft)
01.11.2010 07:00 8.1 C 97 % 1005.9 hPa 0.0 l/m 0.4 km/h (0 Bft) O 0.00 h 18 W/m 7.6 C 8.1 C 0.9 km/h (0 Bft)
01.11.2010 08:00 8.8 C 96 % 1007.0 hPa 0.0 l/m 0.1 km/h (0 Bft) W-NW 0.00 h 71 W/m 8.2 C 8.8 C 0.6 km/h (0 Bft)
01.11.2010 09:00 9.8 C 92 % 1007.7 hPa 0.0 l/m 1.6 km/h (1 Bft) W-NW 0.00 h 104 W/m 8.6 C 9.8 C 3.2 km/h (1 Bft)
01.11.2010 10:00 10.7 C 89 % 1007.7 hPa 0.0 l/m 4.1 km/h (1 Bft) W-NW 0.22 h 193 W/m 8.9 C 10.7 C 6.6 km/h (2 Bft)
01.11.2010 11:00 12.5 C 84 % 1007.6 hPa 0.0 l/m 2.4 km/h (1 Bft) N-NW 1.00 h 355 W/m 9.8 C 12.5 C 4.6 km/h (1 Bft)
01.11.2010 12:00 12.4 C 84 % 1007.5 hPa 0.0 l/m 0.5 km/h (0 Bft) N-NW 0.15 h 175 W/m 9.8 C 12.4 C 1.4 km/h (1 Bft)
01.11.2010 13:00 14.9 C 77 % 1007.3 hPa 0.0 l/m 2.5 km/h (1 Bft) N-NW 0.97 h 425 W/m 10.8 C 14.9 C 4.3 km/h (1 Bft)
01.11.2010 14:00 15.3 C 73 % 1007.6 hPa 0.0 l/m 6.0 km/h (2 Bft) W 1.00 h 281 W/m 10.4 C 15.3 C 8.7 km/h (2 Bft)
01.11.2010 15:00 14.7 C 74 % 1008.1 hPa 0.0 l/m 5.1 km/h (1 Bft) W 1.00 h 162 W/m 10.2 C 14.7 C 8.0 km/h (2 Bft)
01.11.2010 16:00 13.7 C 75 % 1008.5 hPa 0.0 l/m 2.9 km/h (1 Bft) W-NW 0.35 h 47 W/m 9.3 C 13.7 C 5.1 km/h (1 Bft)
01.11.2010 17:00 12.0 C 79 % 1009.4 hPa 0.0 l/m 0.5 km/h (0 Bft) W 0.00 h 6 W/m 8.5 C 12.0 C 1.9 km/h (1 Bft)
01.11.2010 18:00 11.1 C 82 % 1010.7 hPa 0.0 l/m 1.0 km/h (0 Bft) N-NW 0.00 h 0 W/m 8.2 C 11.1 C 2.8 km/h (1 Bft)
01.11.2010 19:00 9.3 C 89 % 1011.3 hPa 0.0 l/m 1.0 km/h (0 Bft) O-NO 0.00 h 0 W/m 7.5 C 9.3 C 2.5 km/h (1 Bft)
01.11.2010 20:00 8.3 C 92 % 1011.5 hPa 0.0 l/m 0.8 km/h (0 Bft) O-NO 0.00 h 0 W/m 7.0 C 8.2 C 1.8 km/h (1 Bft)
01.11.2010 21:00 7.5 C 94 % 1012.5 hPa 0.0 l/m 0.4 km/h (0 Bft) O-NO 0.00 h 0 W/m 6.5 C 7.5 C 1.4 km/h (1 Bft)
01.11.2010 22:00 7.1 C 95 % 1012.6 hPa 0.0 l/m 1.2 km/h (1 Bft) O-NO 0.00 h 0 W/m 6.4 C 7.0 C 2.3 km/h (1 Bft)
01.11.2010 23:00 7.2 C 96 % 1012.7 hPa 0.0 l/m 0.6 km/h (0 Bft) O-SO 0.00 h 0 W/m 6.6 C 7.2 C 0.8 km/h (0 Bft)
02.11.2010 00:00 7.2 C 96 % 1013.3 hPa 0.0 l/m 1.1 km/h (1 Bft) O-SO 0.00 h 0 W/m 6.6 C 7.2 C 1.9 km/h (1 Bft)
02.11.2010 01:00 6.8 C 97 % 1013.4 hPa 0.0 l/m 1.0 km/h (0 Bft) SO 0.00 h 0 W/m 6.4 C 6.8 C 2.1 km/h (1 Bft)
02.11.2010 02:00 6.5 C 97 % 1013.6 hPa 0.0 l/m 0.1 km/h (0 Bft) O-SO 0.00 h 0 W/m 6.1 C 6.5 C 0.3 km/h (0 Bft)
02.11.2010 03:00 6.2 C 98 % 1014.1 hPa 0.0 l/m 0.4 km/h (0 Bft) O-SO 0.00 h 0 W/m 5.9 C 6.2 C 0.7 km/h (0 Bft)
02.11.2010 04:00 5.7 C 98 % 1014.2 hPa 0.0 l/m 0.2 km/h (0 Bft) O-SO 0.00 h 0 W/m 5.4 C 5.7 C 0.3 km/h (0 Bft)
02.11.2010 05:00 5.5 C 98 % 1015.0 hPa 0.0 l/m 0.7 km/h (0 Bft) O-SO 0.00 h 0 W/m 5.2 C 5.5 C 1.1 km/h (1 Bft)
02.11.2010 06:00 6.1 C 98 % 1015.5 hPa 0.0 l/m 0.1 km/h (0 Bft) O-SO 0.00 h 0 W/m 5.8 C 6.1 C 0.4 km/h (0 Bft)
02.11.2010 07:00 6.7 C 98 % 1016.4 hPa 0.0 l/m 0.2 km/h (0 Bft) N-NO 0.00 h 11 W/m 6.4 C 6.7 C 0.7 km/h (0 Bft)
02.11.2010 08:00 7.7 C 98 % 1017.1 hPa 0.0 l/m 0.8 km/h (0 Bft) N-NO 0.00 h 44 W/m 7.4 C 7.7 C 2.0 km/h (1 Bft)
02.11.2010 09:00 8.8 C 96 % 1017.4 hPa 0.0 l/m 1.0 km/h (0 Bft) N 0.00 h 108 W/m 8.2 C 8.7 C 2.6 km/h (1 Bft)
02.11.2010 10:00 9.6 C 92 % 1017.5 hPa 0.0 l/m 0.6 km/h (0 Bft) NO 0.00 h 130 W/m 8.4 C 9.6 C 1.9 km/h (1 Bft)
02.11.2010 11:00 10.2 C 91 % 1017.7 hPa 0.0 l/m 0.4 km/h (0 Bft) N 0.00 h 132 W/m 8.8 C 10.2 C 1.6 km/h (1 Bft)
02.11.2010 12:00 11.3 C 88 % 1017.6 hPa 0.0 l/m 2.2 km/h (1 Bft) W 0.10 h 189 W/m 9.4 C 11.3 C 4.1 km/h (1 Bft)
02.11.2010 13:00 11.8 C 85 % 1017.5 hPa 0.0 l/m 4.5 km/h (1 Bft) W-NW 0.08 h 134 W/m 9.3 C 11.8 C 7.9 km/h (2 Bft)
02.11.2010 14:00 11.7 C 85 % 1017.4 hPa 0.0 l/m 2.3 km/h (1 Bft) SW 0.30 h 155 W/m 9.3 C 11.7 C 4.7 km/h (1 Bft)
02.11.2010 15:00 11.9 C 82 % 1017.7 hPa 0.0 l/m 5.9 km/h (2 Bft) W 0.28 h 96 W/m 8.9 C 11.9 C 9.7 km/h (2 Bft)
02.11.2010 16:00 10.9 C 84 % 1018.4 hPa 0.0 l/m 1.8 km/h (1 Bft) W-NW 0.00 h 27 W/m 8.3 C 10.9 C 3.9 km/h (1 Bft)
02.11.2010 17:00 10.2 C 86 % 1019.0 hPa 0.0 l/m 3.9 km/h (1 Bft) W 0.00 h 5 W/m 8.0 C 10.2 C 6.8 km/h (2 Bft)
02.11.2010 18:00 10.4 C 84 % 1019.5 hPa 0.0 l/m 8.7 km/h (2 Bft) W 0.00 h 0 W/m 7.8 C 10.4 C 13.9 km/h (3 Bft)
02.11.2010 19:00 9.9 C 86 % 1020.1 hPa 0.0 l/m 0.6 km/h (0 Bft) W 0.00 h 0 W/m 7.6 C 9.9 C 1.9 km/h (1 Bft)
02.11.2010 20:00 9.1 C 88 % 1019.9 hPa 0.0 l/m 0.5 km/h (0 Bft) W-SW 0.00 h 0 W/m 7.2 C 9.1 C 1.3 km/h (1 Bft)
02.11.2010 21:00 7.5 C 92 % 1020.0 hPa 0.0 l/m 0.6 km/h (0 Bft) O-SO 0.00 h 0 W/m 6.3 C 7.4 C 1.0 km/h (0 Bft)
02.11.2010 22:00 6.8 C 95 % 1019.8 hPa 0.0 l/m 0.2 km/h (0 Bft) O-SO 0.00 h 0 W/m 6.0 C 6.8 C 0.7 km/h (0 Bft)
02.11.2010 23:00 6.2 C 96 % 1019.9 hPa 0.0 l/m 0.7 km/h (0 Bft) O-SO 0.00 h 0 W/m 5.6 C 6.2 C 1.2 km/h (1 Bft)
03.11.2010 00:00 5.4 C 96 % 1020.0 hPa 0.0 l/m 0.4 km/h (0 Bft) O-SO 0.00 h 0 W/m 4.9 C 5.4 C 0.8 km/h (0 Bft)
03.11.2010 01:00 4.8 C 97 % 1020.1 hPa 0.0 l/m 0.2 km/h (0 Bft) O-SO 0.00 h 0 W/m 4.3 C 4.8 C 0.5 km/h (0 Bft)
03.11.2010 02:00 4.6 C 98 % 1020.2 hPa 0.0 l/m 1.0 km/h (0 Bft) O-SO 0.00 h 0 W/m 4.2 C 4.5 C 1.4 km/h (1 Bft)
03.11.2010 03:00 5.3 C 98 % 1020.2 hPa 0.0 l/m 0.3 km/h (0 Bft) O-SO 0.00 h 0 W/m 5.0 C 5.3 C 0.9 km/h (0 Bft)
03.11.2010 04:00 5.7 C 98 % 1020.1 hPa 0.0 l/m 0.1 km/h (0 Bft) O-SO 0.00 h 0 W/m 5.4 C 5.7 C 0.4 km/h (0 Bft)
03.11.2010 05:00 6.1 C 98 % 1019.9 hPa 0.0 l/m 0.2 km/h (0 Bft) O-SO 0.00 h 0 W/m 5.8 C 6.1 C 0.7 km/h (0 Bft)
03.11.2010 06:00 6.5 C 98 % 1020.0 hPa 0.0 l/m 0.4 km/h (0 Bft) S-SO 0.00 h 0 W/m 6.2 C 6.5 C 1.2 km/h (1 Bft)
03.11.2010 07:00 7.7 C 95 % 1020.2 hPa 0.0 l/m 0.7 km/h (0 Bft) S-SO 0.03 h 19 W/m 7.0 C 7.7 C 1.8 km/h (1 Bft)
03.11.2010 08:00 8.1 C 94 % 1020.9 hPa 0.0 l/m 0.7 km/h (0 Bft) S 0.45 h 88 W/m 7.2 C 8.1 C 1.8 km/h (1 Bft)
03.11.2010 09:00 8.6 C 94 % 1021.2 hPa 0.0 l/m 0.1 km/h (0 Bft) NW 0.00 h 73 W/m 7.6 C 8.6 C 0.8 km/h (0 Bft)
03.11.2010 10:00 9.4 C 91 % 1021.5 hPa 0.0 l/m 0.7 km/h (0 Bft) NW 0.00 h 84 W/m 8.1 C 9.4 C 2.2 km/h (1 Bft)
03.11.2010 11:00 11.0 C 85 % 1021.4 hPa 0.0 l/m 3.3 km/h (1 Bft) S 0.00 h 116 W/m 8.6 C 11.0 C 7.4 km/h (2 Bft)
03.11.2010 12:00 11.7 C 86 % 1021.4 hPa 0.0 l/m 0.8 km/h (0 Bft) N-NO 0.03 h 156 W/m 9.5 C 11.7 C 2.0 km/h (1 Bft)
03.11.2010 13:00 13.7 C 79 % 1020.9 hPa 0.0 l/m 2.4 km/h (1 Bft) W-SW 0.25 h 200 W/m 10.1 C 13.7 C 4.4 km/h (1 Bft)
03.11.2010 14:00 14.5 C 77 % 1020.9 hPa 0.0 l/m 4.6 km/h (1 Bft) W 0.27 h 157 W/m 10.4 C 14.5 C 7.2 km/h (2 Bft)
03.11.2010 15:00 14.4 C 76 % 1021.1 hPa 0.0 l/m 5.8 km/h (2 Bft) W 0.05 h 70 W/m 10.2 C 14.4 C 9.1 km/h (2 Bft)
03.11.2010 16:00 14.0 C 78 % 1021.3 hPa 0.0 l/m 3.8 km/h (1 Bft) W 0.08 h 35 W/m 10.2 C 14.0 C 7.0 km/h (2 Bft)
03.11.2010 17:00 13.7 C 79 % 1022.2 hPa 0.0 l/m 1.8 km/h (1 Bft) W-SW 0.00 h 0 W/m 10.2 C 13.7 C 3.8 km/h (1 Bft)
03.11.2010 18:00 13.5 C 81 % 1022.8 hPa 0.0 l/m 2.1 km/h (1 Bft) W-SW 0.00 h 0 W/m 10.3 C 13.5 C 4.6 km/h (1 Bft)
03.11.2010 19:00 13.2 C 82 % 1023.8 hPa 0.0 l/m 4.1 km/h (1 Bft) W 0.00 h 0 W/m 10.2 C 13.2 C 6.9 km/h (2 Bft)
03.11.2010 20:00 12.7 C 84 % 1024.3 hPa 0.0 l/m 3.4 km/h (1 Bft) W-SW 0.00 h 0 W/m 10.0 C 12.7 C 5.9 km/h (2 Bft)
03.11.2010 21:00 12.7 C 84 % 1024.8 hPa 0.0 l/m 2.7 km/h (1 Bft) S-SO 0.00 h 0 W/m 10.1 C 12.7 C 4.4 km/h (1 Bft)
03.11.2010 22:00 12.7 C 83 % 1024.8 hPa 0.0 l/m 1.9 km/h (1 Bft) S-SO 0.00 h 0 W/m 10.0 C 12.7 C 4.2 km/h (1 Bft)
03.11.2010 23:00 12.5 C 85 % 1024.9 hPa 0.0 l/m 0.9 km/h (0 Bft) S-SO 0.00 h 0 W/m 10.0 C 12.5 C 2.3 km/h (1 Bft)
04.11.2010 00:00 12.5 C 85 % 1025.4 hPa 0.0 l/m 1.1 km/h (1 Bft) S-SO 0.00 h 0 W/m 10.0 C 12.5 C 2.5 km/h (1 Bft)
04.11.2010 01:00 13.0 C 84 % 1025.6 hPa 0.0 l/m 4.8 km/h (1 Bft) W-NW 0.00 h 0 W/m 10.4 C 13.0 C 7.9 km/h (2 Bft)
04.11.2010 02:00 13.6 C 81 % 1025.8 hPa 0.0 l/m 4.8 km/h (1 Bft) W 0.00 h 0 W/m 10.5 C 13.6 C 8.9 km/h (2 Bft)
04.11.2010 03:00 13.5 C 83 % 1025.9 hPa 0.0 l/m 4.1 km/h (1 Bft) W 0.00 h 0 W/m 10.6 C 13.5 C 6.9 km/h (2 Bft)
04.11.2010 04:00 12.3 C 86 % 1026.2 hPa 0.0 l/m 3.9 km/h (1 Bft) SO 0.00 h 0 W/m 10.0 C 12.3 C 6.3 km/h (2 Bft)
04.11.2010 05:00 12.3 C 85 % 1026.8 hPa 0.0 l/m 3.2 km/h (1 Bft) S-SO 0.00 h 0 W/m 9.9 C 12.3 C 6.0 km/h (2 Bft)
04.11.2010 06:00 11.8 C 87 % 1027.1 hPa 0.0 l/m 1.0 km/h (0 Bft) S-SO 0.00 h 0 W/m 9.7 C 11.8 C 3.3 km/h (1 Bft)
04.11.2010 07:00 11.5 C 88 % 1027.7 hPa 0.0 l/m 3.3 km/h (1 Bft) S 0.05 h 16 W/m 9.5 C 11.5 C 7.5 km/h (2 Bft)
04.11.2010 08:00 11.9 C 88 % 1028.4 hPa 0.0 l/m 4.6 km/h (1 Bft) S-SW 0.30 h 76 W/m 9.9 C 11.9 C 9.3 km/h (2 Bft)
04.11.2010 09:00 13.6 C 83 % 1028.8 hPa 0.0 l/m 4.3 km/h (1 Bft) S-SW 1.00 h 223 W/m 10.8 C 13.6 C 8.6 km/h (2 Bft)
04.11.2010 10:00 15.1 C 79 % 1028.7 hPa 0.0 l/m 5.7 km/h (1 Bft) S 0.63 h 254 W/m 11.4 C 15.1 C 10.8 km/h (2 Bft)
04.11.2010 11:00 16.9 C 74 % 1028.6 hPa 0.0 l/m 3.5 km/h (1 Bft) S 0.62 h 328 W/m 12.3 C 16.9 C 6.9 km/h (2 Bft)
04.11.2010 12:00 17.8 C 72 % 1028.2 hPa 0.0 l/m 6.9 km/h (2 Bft) W 0.55 h 249 W/m 12.5 C 17.8 C 11.3 km/h (2 Bft)
04.11.2010 13:00 17.7 C 72 % 1027.9 hPa 0.0 l/m 8.1 km/h (2 Bft) W 0.40 h 234 W/m 12.6 C 17.7 C 12.7 km/h (3 Bft)
04.11.2010 14:00 18.3 C 72 % 1027.6 hPa 0.0 l/m 7.0 km/h (2 Bft) W 0.95 h 258 W/m 13.1 C 18.3 C 11.6 km/h (2 Bft)
04.11.2010 15:00 18.1 C 73 % 1027.5 hPa 0.0 l/m 7.6 km/h (2 Bft) W 1.00 h 169 W/m 13.2 C 18.1 C 12.1 km/h (2 Bft)
04.11.2010 16:00 17.0 C 77 % 1027.7 hPa 0.0 l/m 4.6 km/h (1 Bft) W-SW 0.77 h 53 W/m 13.0 C 17.0 C 7.9 km/h (2 Bft)
04.11.2010 17:00 15.4 C 84 % 1028.2 hPa 0.0 l/m 3.0 km/h (1 Bft) W-SW 0.00 h 5 W/m 12.7 C 15.4 C 5.4 km/h (1 Bft)
04.11.2010 18:00 14.8 C 86 % 1028.5 hPa 0.0 l/m 1.9 km/h (1 Bft) SW 0.00 h 0 W/m 12.4 C 14.8 C 4.1 km/h (1 Bft)
04.11.2010 19:00 14.7 C 86 % 1028.9 hPa 0.0 l/m 2.1 km/h (1 Bft) SW 0.00 h 0 W/m 12.4 C 14.7 C 4.4 km/h (1 Bft)
04.11.2010 20:00 14.1 C 89 % 1028.8 hPa 0.0 l/m 1.5 km/h (1 Bft) W-SW 0.00 h 0 W/m 12.3 C 14.1 C 3.5 km/h (1 Bft)
04.11.2010 21:00 14.6 C 87 % 1029.1 hPa 0.0 l/m 2.0 km/h (1 Bft) S 0.00 h 0 W/m 12.5 C 14.6 C 4.5 km/h (1 Bft)
04.11.2010 22:00 13.6 C 90 % 1028.9 hPa 0.0 l/m 4.4 km/h (1 Bft) S-SO 0.00 h 0 W/m 11.9 C 13.6 C 7.6 km/h (2 Bft)
04.11.2010 23:00 13.3 C 90 % 1028.7 hPa 0.0 l/m 2.6 km/h (1 Bft) S-SO 0.00 h 0 W/m 11.6 C 13.3 C 5.7 km/h (1 Bft)
05.11.2010 00:00 13.4 C 88 % 1028.8 hPa 0.0 l/m 1.1 km/h (1 Bft) S 0.00 h 0 W/m 11.5 C 13.4 C 3.4 km/h (1 Bft)
05.11.2010 01:00 13.6 C 87 % 1028.5 hPa 0.0 l/m 1.1 km/h (1 Bft) S-SO 0.00 h 0 W/m 11.5 C 13.6 C 2.7 km/h (1 Bft)
05.11.2010 02:00 13.8 C 86 % 1028.3 hPa 0.0 l/m 2.5 km/h (1 Bft) S-SO 0.00 h 0 W/m 11.4 C 13.8 C 5.1 km/h (1 Bft)
05.11.2010 03:00 12.9 C 87 % 1028.1 hPa 0.0 l/m 5.9 km/h (2 Bft) S 0.00 h 0 W/m 10.9 C 12.9 C 11.1 km/h (2 Bft)
05.11.2010 04:00 12.4 C 88 % 1028.1 hPa 0.0 l/m 6.5 km/h (2 Bft) S-SO 0.00 h 0 W/m 10.5 C 12.4 C 11.4 km/h (2 Bft)
05.11.2010 05:00 12.4 C 88 % 1028.3 hPa 0.0 l/m 4.4 km/h (1 Bft) S-SO 0.00 h 0 W/m 10.5 C 12.4 C 8.1 km/h (2 Bft)
05.11.2010 06:00 12.4 C 87 % 1028.3 hPa 0.0 l/m 3.2 km/h (1 Bft) S 0.00 h 0 W/m 10.3 C 12.4 C 7.0 km/h (2 Bft)
05.11.2010 07:00 12.1 C 87 % 1028.3 hPa 0.0 l/m 5.0 km/h (1 Bft) S-SW 0.00 h 14 W/m 10.1 C 12.1 C 9.2 km/h (2 Bft)
05.11.2010 08:00 12.1 C 87 % 1028.7 hPa 0.0 l/m 3.8 km/h (1 Bft) S 0.00 h 33 W/m 10.0 C 12.1 C 7.6 km/h (2 Bft)
05.11.2010 09:00 13.6 C 87 % 1028.7 hPa 0.0 l/m 2.8 km/h (1 Bft) W-SW 0.00 h 93 W/m 11.4 C 13.6 C 5.4 km/h (1 Bft)
05.11.2010 10:00 13.6 C 84 % 1028.8 hPa 0.0 l/m 4.0 km/h (1 Bft) S 0.00 h 130 W/m 10.9 C 13.6 C 7.4 km/h (2 Bft)
05.11.2010 11:00 14.4 C 82 % 1028.7 hPa 0.0 l/m 2.5 km/h (1 Bft) S 0.03 h 175 W/m 11.3 C 14.4 C 5.2 km/h (1 Bft)
05.11.2010 12:00 15.4 C 81 % 1028.0 hPa 0.0 l/m 4.8 km/h (1 Bft) W 0.00 h 147 W/m 12.2 C 15.4 C 8.5 km/h (2 Bft)
05.11.2010 13:00 15.6 C 81 % 1027.3 hPa 0.0 l/m 3.0 km/h (1 Bft) W-SW 0.00 h 107 W/m 12.3 C 15.6 C 5.7 km/h (1 Bft)
05.11.2010 14:00 16.0 C 80 % 1026.6 hPa 0.0 l/m 5.7 km/h (1 Bft) W 0.00 h 115 W/m 12.4 C 16.0 C 9.9 km/h (2 Bft)
05.11.2010 15:00 16.3 C 77 % 1026.1 hPa 0.0 l/m 7.3 km/h (2 Bft) W 0.00 h 85 W/m 12.1 C 16.3 C 10.9 km/h (2 Bft)
05.11.2010 16:00 15.9 C 76 % 1025.9 hPa 0.0 l/m 6.0 km/h (2 Bft) W 0.02 h 26 W/m 11.8 C 15.9 C 9.4 km/h (2 Bft)
05.11.2010 17:00 15.3 C 80 % 1025.8 hPa 0.0 l/m 5.8 km/h (2 Bft) W 0.00 h 0 W/m 11.8 C 15.3 C 9.0 km/h (2 Bft)
05.11.2010 18:00 14.8 C 83 % 1026.0 hPa 0.0 l/m 5.3 km/h (1 Bft) W 0.00 h 0 W/m 11.9 C 14.8 C 8.1 km/h (2 Bft)
05.11.2010 19:00 14.6 C 84 % 1026.1 hPa 0.0 l/m 7.6 km/h (2 Bft) W 0.00 h 0 W/m 11.9 C 14.6 C 11.7 km/h (2 Bft)
05.11.2010 20:00 14.4 C 83 % 1026.0 hPa 0.0 l/m 5.9 km/h (2 Bft) W 0.00 h 0 W/m 11.5 C 14.4 C 9.2 km/h (2 Bft)
05.11.2010 21:00 14.4 C 81 % 1025.5 hPa 0.0 l/m 5.2 km/h (1 Bft) W 0.00 h 0 W/m 11.2 C 14.4 C 8.7 km/h (2 Bft)
05.11.2010 22:00 14.0 C 84 % 1025.1 hPa 0.0 l/m 2.0 km/h (1 Bft) S 0.00 h 0 W/m 11.4 C 14.0 C 4.4 km/h (1 Bft)
05.11.2010 23:00 13.7 C 85 % 1024.6 hPa 0.0 l/m 2.7 km/h (1 Bft) W-SW 0.00 h 0 W/m 11.3 C 13.7 C 5.2 km/h (1 Bft)
06.11.2010 00:00 13.5 C 82 % 1024.1 hPa 0.0 l/m 10.1 km/h (2 Bft) W 0.00 h 0 W/m 10.4 C 13.5 C 15.6 km/h (3 Bft)
06.11.2010 01:00 12.8 C 82 % 1023.4 hPa 0.0 l/m 10.2 km/h (2 Bft) W 0.00 h 0 W/m 9.8 C 12.8 C 15.4 km/h (3 Bft)
06.11.2010 02:00 12.6 C 82 % 1023.0 hPa 0.0 l/m 5.6 km/h (1 Bft) W 0.00 h 0 W/m 9.6 C 12.6 C 8.8 km/h (2 Bft)
06.11.2010 03:00 12.0 C 85 % 1022.4 hPa 0.0 l/m 4.5 km/h (1 Bft) W-SW 0.00 h 0 W/m 9.5 C 12.0 C 7.9 km/h (2 Bft)
06.11.2010 04:00 11.9 C 86 % 1022.0 hPa 0.0 l/m 3.4 km/h (1 Bft) W-SW 0.00 h 0 W/m 9.6 C 11.9 C 6.3 km/h (2 Bft)
06.11.2010 05:00 11.9 C 85 % 1021.7 hPa 0.0 l/m 3.2 km/h (1 Bft) W 0.00 h 0 W/m 9.5 C 11.9 C 6.3 km/h (2 Bft)
06.11.2010 06:00 11.7 C 85 % 1021.3 hPa 0.0 l/m 3.3 km/h (1 Bft) S 0.00 h 0 W/m 9.3 C 11.7 C 6.1 km/h (2 Bft)
06.11.2010 07:00 11.6 C 86 % 1020.9 hPa 0.0 l/m 3.5 km/h (1 Bft) S 0.00 h 11 W/m 9.4 C 11.6 C 6.7 km/h (2 Bft)
06.11.2010 08:00 11.8 C 86 % 1020.8 hPa 0.0 l/m 3.5 km/h (1 Bft) S-SW 0.07 h 61 W/m 9.6 C 11.8 C 6.6 km/h (2 Bft)
06.11.2010 09:00 12.4 C 85 % 1020.3 hPa 0.0 l/m 4.0 km/h (1 Bft) S-SO 0.00 h 74 W/m 10.0 C 12.4 C 7.9 km/h (2 Bft)
06.11.2010 10:00 13.5 C 81 % 1019.6 hPa 0.0 l/m 5.5 km/h (1 Bft) W 0.00 h 141 W/m 10.3 C 13.5 C 9.9 km/h (2 Bft)
06.11.2010 11:00 14.5 C 73 % 1018.8 hPa 0.0 l/m 11.4 km/h (2 Bft) W 0.00 h 161 W/m 9.8 C 14.5 C 17.7 km/h (3 Bft)
06.11.2010 12:00 15.2 C 67 % 1018.0 hPa 0.0 l/m 12.1 km/h (2 Bft) W 0.25 h 184 W/m 9.1 C 15.2 C 18.2 km/h (3 Bft)
06.11.2010 13:00 15.5 C 67 % 1017.0 hPa 0.0 l/m 13.4 km/h (3 Bft) W 0.40 h 237 W/m 9.4 C 15.5 C 20.4 km/h (4 Bft)
06.11.2010 14:00 15.5 C 68 % 1016.1 hPa 0.0 l/m 11.6 km/h (2 Bft) W 0.88 h 243 W/m 9.5 C 15.5 C 17.4 km/h (3 Bft)
06.11.2010 15:00 14.7 C 69 % 1015.6 hPa 0.0 l/m 10.0 km/h (2 Bft) W 0.15 h 94 W/m 9.1 C 14.7 C 15.1 km/h (3 Bft)
06.11.2010 16:00 13.6 C 74 % 1015.0 hPa 0.0 l/m 4.8 km/h (1 Bft) W 0.08 h 33 W/m 9.1 C 13.6 C 8.0 km/h (2 Bft)
06.11.2010 17:00 12.7 C 77 % 1014.6 hPa 0.0 l/m 3.1 km/h (1 Bft) W-NW 0.00 h 0 W/m 8.8 C 12.7 C 6.0 km/h (2 Bft)
06.11.2010 18:00 12.6 C 77 % 1014.3 hPa 0.0 l/m 6.1 km/h (2 Bft) W 0.00 h 0 W/m 8.7 C 12.6 C 9.9 km/h (2 Bft)
06.11.2010 19:00 12.1 C 78 % 1013.7 hPa 0.0 l/m 0.9 km/h (0 Bft) S-SW 0.00 h 0 W/m 8.5 C 12.1 C 2.3 km/h (1 Bft)
06.11.2010 20:00 12.3 C 77 % 1012.6 hPa 0.0 l/m 0.4 km/h (0 Bft) W 0.00 h 0 W/m 8.5 C 12.3 C 1.9 km/h (1 Bft)
06.11.2010 21:00 12.3 C 77 % 1011.7 hPa 0.0 l/m 0.5 km/h (0 Bft) W 0.00 h 0 W/m 8.4 C 12.3 C 1.6 km/h (1 Bft)
06.11.2010 22:00 11.6 C 81 % 1010.9 hPa 0.0 l/m 0.3 km/h (0 Bft) SO 0.00 h 0 W/m 8.5 C 11.6 C 0.9 km/h (0 Bft)
06.11.2010 23:00 11.3 C 84 % 1010.0 hPa 0.0 l/m 0.4 km/h (0 Bft) SO 0.00 h 0 W/m 8.7 C 11.3 C 1.2 km/h (1 Bft)
07.11.2010 00:00 11.4 C 83 % 1008.8 hPa 0.0 l/m 0.6 km/h (0 Bft) SO 0.00 h 0 W/m 8.7 C 11.4 C 1.8 km/h (1 Bft)
07.11.2010 01:00 11.6 C 81 % 1007.6 hPa 0.0 l/m 0.9 km/h (0 Bft) S 0.00 h 0 W/m 8.5 C 11.6 C 2.5 km/h (1 Bft)
07.11.2010 02:00 11.2 C 82 % 1006.4 hPa 0.0 l/m 0.9 km/h (0 Bft) S-SO 0.00 h 0 W/m 8.3 C 11.2 C 2.2 km/h (1 Bft)
07.11.2010 03:00 11.2 C 81 % 1005.2 hPa 0.0 l/m 3.1 km/h (1 Bft) S-SO 0.00 h 0 W/m 8.2 C 11.2 C 5.1 km/h (1 Bft)
07.11.2010 04:00 11.2 C 81 % 1004.1 hPa 0.0 l/m 1.7 km/h (1 Bft) S 0.00 h 0 W/m 8.0 C 11.2 C 3.9 km/h (1 Bft)
07.11.2010 05:00 10.9 C 82 % 1003.2 hPa 0.0 l/m 0.4 km/h (0 Bft) W-SW 0.00 h 0 W/m 7.9 C 10.9 C 1.6 km/h (1 Bft)
07.11.2010 06:00 10.8 C 82 % 1002.2 hPa 0.0 l/m 1.2 km/h (1 Bft) S 0.00 h 0 W/m 7.9 C 10.8 C 3.2 km/h (1 Bft)
07.11.2010 07:00 10.5 C 84 % 1001.5 hPa 0.0 l/m 0.9 km/h (0 Bft) S-SO 0.00 h 7 W/m 8.0 C 10.5 C 2.7 km/h (1 Bft)
07.11.2010 08:00 10.5 C 85 % 1001.5 hPa 0.0 l/m 0.8 km/h (0 Bft) W 0.00 h 27 W/m 8.2 C 10.5 C 2.2 km/h (1 Bft)
07.11.2010 09:00 11.2 C 84 % 1001.0 hPa 0.0 l/m 5.6 km/h (1 Bft) W 0.00 h 56 W/m 8.6 C 11.2 C 9.4 km/h (2 Bft)
07.11.2010 10:00 11.1 C 83 % 1001.1 hPa 0.0 l/m 10.2 km/h (2 Bft) W 0.00 h 69 W/m 8.2 C 11.1 C 16.3 km/h (3 Bft)
07.11.2010 11:00 10.2 C 81 % 1001.0 hPa 0.0 l/m 13.7 km/h (3 Bft) W 0.00 h 51 W/m 7.1 C 9.4 C 21.2 km/h (4 Bft)
07.11.2010 12:00 9.3 C 83 % 1000.6 hPa 0.0 l/m 14.9 km/h (3 Bft) W 0.00 h 57 W/m 6.5 C 7.1 C 22.4 km/h (4 Bft)
07.11.2010 13:00 8.1 C 87 % 1000.4 hPa 0.0 l/m 12.3 km/h (3 Bft) W 0.00 h 88 W/m 6.0 C 6.0 C 19.4 km/h (3 Bft)
07.11.2010 14:00 7.1 C 91 % 1000.6 hPa 0.6 l/m 11.4 km/h (2 Bft) W 0.00 h 45 W/m 5.6 C 4.9 C 17.6 km/h (3 Bft)
07.11.2010 15:00 6.2 C 92 % 1001.3 hPa 0.6 l/m 10.5 km/h (2 Bft) W 0.00 h 33 W/m 5.0 C 4.2 C 16.3 km/h (3 Bft)
07.11.2010 16:00 6.1 C 93 % 1001.8 hPa 0.6 l/m 4.5 km/h (1 Bft) S-SO 0.00 h 9 W/m 5.1 C 5.6 C 8.2 km/h (2 Bft)
07.11.2010 17:00 6.3 C 94 % 1001.8 hPa 0.2 l/m 2.2 km/h (1 Bft) SW 0.00 h 0 W/m 5.3 C 6.1 C 4.8 km/h (1 Bft)
07.11.2010 18:00 6.3 C 95 % 1002.1 hPa 0.0 l/m 1.6 km/h (1 Bft) S-SW 0.00 h 0 W/m 5.5 C 6.2 C 3.6 km/h (1 Bft)
07.11.2010 19:00 6.3 C 94 % 1001.8 hPa 0.0 l/m 1.8 km/h (1 Bft) S-SO 0.00 h 0 W/m 5.4 C 6.2 C 4.3 km/h (1 Bft)
07.11.2010 20:00 6.1 C 94 % 1001.0 hPa 0.0 l/m 1.9 km/h (1 Bft) S-SO 0.00 h 0 W/m 5.2 C 6.1 C 3.5 km/h (1 Bft)
07.11.2010 21:00 5.7 C 94 % 1000.3 hPa 0.0 l/m 1.0 km/h (0 Bft) SO 0.00 h 0 W/m 4.8 C 5.7 C 2.0 km/h (1 Bft)
07.11.2010 22:00 5.3 C 95 % 1000.0 hPa 0.0 l/m 1.4 km/h (1 Bft) S-SO 0.00 h 0 W/m 4.6 C 5.2 C 2.8 km/h (1 Bft)
07.11.2010 23:00 5.1 C 96 % 999.4 hPa 0.2 l/m 0.0 km/h (0 Bft) S-SO 0.00 h 0 W/m 4.4 C 5.1 C 0.2 km/h (0 Bft)
Min-Datum _ 03.11.10 06.11.10 07.11.10 - 01.11.10 - - - 03.11.10 07.11.10 01.11.10
_ Min-Zeit 02:23 13:05 23:45 - 00:03 - - - 02:23 15:27 00:28
Minimum _ 4.3 C 61 % 999.2 hPa - 0.0 km/h (0 Bft) - - - 3.9 C 2.7 C 0.0 km/h (0 Bft)
Max-Datum _ 04.11.10 03.11.10 04.11.10 07.11.10 06.11.10 - 01.11.10 01.11.10 04.11.10 04.11.10 07.11.10
_ Max-Zeit 14:36 00:27 21:00 14:23 13:44 - 10:34 13:11 14:45 14:36 12:54
Maximum _ 18.8 C 100 % 1029.1 hPa 0.6 l/m 25.0 km/h
W (4 Bft)
- 0.02 h 538 W/m 13.5 C 18.8 C 38.2 km/h
W (5 Bft)
Durchschnitt _ 11.3 C 86 % 1017.3 hPa #2.2 l/m 3.3 km/h (1 Bft) W #14:46 h 114 W/m 8.9 C 11.2 C 5.8 km/h (2 Bft)
© Kaiko 2010